Jeremiah, KY (41826)

7:16 AM EDT on July 29, 2014 (GMT -0400)
RAWS PRAWS 12 KY US (MSFUA3) Elev 1974 ft | 37.15 °N, 82.64 °W | Change Station

Current weather conditions updated 29 minutes ago

Overcast
Overcast
51 °F
Feels Like 51 °F
N
0
Wind Variable Wind from North
Gusts 1.0 mph

Today is forecast to be Cooler than yesterday.

Today
High -- | Low -- °F
--% Chance of Precip.
Yesterday
High -- | Low -- °F
Precip. -- in
6:34 AM 8:41 PM
Waxing Crescent, 6% visible
Pressure 30.05 in
Visibility 10.0 miles
Clouds Overcast 800 ft
Dew Point 51 °F
Humidity 100%
Rainfall 0.00 in
Snow Depth Not available.
UV 0 out of 12
Pollen 4.00 out of 12
Air Quality Not available.
Flu Activity Not available.
METAR KLNP 291055Z AUTO 00000KT 10SM OVC008 14/13 A3005 RMK AO2

More Conditions Fewer Conditions

Pressure 30.05 in
Visibility 10.0 miles
Clouds Overcast 800 ft
Dew Point 51 °F
Humidity 100%
Rainfall 0.00 in
Snow Depth Not available.
UV 0 out of 12
Pollen 4.00 out of 12
Air Quality Not available.
Flu Activity Not available.
METAR KLNP 291055Z AUTO 00000KT 10SM OVC008 14/13 A3005 RMK AO2

More Conditions Fewer Conditions

10-Day Weather Forecast

Almanac

Astronomy

Jul. 29, 2014 Rise Set
Actual Time 6:34 AM EDT 8:41 PM EDT
Civil Twilight 6:05 AM EDT 9:10 PM EDT
Nautical Twilight 5:29 AM EDT 9:46 PM EDT
Astronomical Twilight 4:51 AM EDT 10:24 PM EDT
Moon 9:04 AM EDT 9:59 PM EDT
Length of Visible Light 15h 05m
Length of Day
14h 07m
Tomorrow will be 1m 43s shorter.
Waxing Crescent, 6% of the Moon is Illuminated
Today
Waxing Crescent
Aug 3
First Quarter
Aug 10
Full
Aug 17
Last Quarter
Aug 25
New

Today's Extremes

State Highs State Lows

Community

WunderPhotos

Upload Photos

1,738,685 photos uploaded!

Nearby

Snow Depth

Station Depth Elevation
No new snow has been reported.

Earthquake Activity

City Distance Mag. Time & Date
No recent earthquake activity has been reported nearby.
Minimum magnitude displayed is 2.5.

Coastal Water Temperatures

Place Temperature
No Stations Reporting

Nearby Weather Stations

Station Location Temp. Dew Point Humidity Wind Precip. Elev Updated Type
RAWS PRAWS 12 KY, Jenkins, KY 51 °F 51 °F 100% North  at  0 mph 0.00 in / hr 1974 ft 6:47 AM EDT MADIS

Show More Stations Show Fewer Stations